Irvington, Illinois
Current Conditions -  °F | °C
As of 6:55 PM on Monday 22 Dec 2014 (Local Time) from KENL Reporting Station
Light Rain Light Rain  
Wind Chill: 44°   Ceiling: 700
Heat Index: 49°   Visibility: 5mi
Dew Point: 47°   Wind: 12mph
Humidity: 91%   Direction: 160°SSE
Pressure: 29.57"   Gusts: 16mph
Location:  38.44°N, 89.16°W
Report Text: KENL 230055Z AUTO 16010G14KT 5SM -RA BKN007 OVC010 10/08 A2957 RMK AO2 P0002 T00950081
Loading
Personal Weather Stations






























Interactive Weather Map New forecast layout! Learn more

10-Day Weather Forecast

Advertisements
Track Severe Weather on mobile